»·PEaware :: PH-TIM KTNP-KTRM

PH-TIM :: KTNP-KTRM

FLIGHT INFORMATION

Flight Status: Arrived
Operator: Privately registered:
Netherlands
More flights under this callsign
Pilot: Tim P. (6337)
Aircraft: CESSNA 172 SKYHAWK
(C172)
More flights by this aircraft type
Origin: KTNP Twentynine Palms
United States
Destination: KTRM Desert Resorts Regl
United States
More flights between these airports :: More routes between these airports
Route: TNP V208 TRM
File this flight plan on PilotEdge
Remarks:
Altitude:
(Current/Filed)
8,000ft
Speed:
(Current/Filed)
105kts
Departed: 25-Aug-18 10:06 AM
Arrived: 25-Aug-18 10:48 AM
Distance/Time
Traveled:
32nm/0:42
Distance/Time
To Go:
Arrived

Flight Plot

Page will automatically refresh every two minutes.

Flight plan parsing failed; only flown route is shown


Map Options




Map Legend


Flown Route
Filed Route
Departure Airport
Arrival Airport
Navaid (VOR, NDB)
Fix

Horizontal Profiles

Position Reports

Time Latitude Longitude Heading Altitude Ground
Speed
25-Aug-18 09:47 34.135982 -115.942105 0 1815ft 0kts
25-Aug-18 09:48 34.135982 -115.942105 0 1815ft 0kts
25-Aug-18 09:49 34.135982 -115.942105 0 1815ft 0kts
25-Aug-18 09:50 34.135983 -115.942105 0 1815ft 0kts
25-Aug-18 09:51 34.135983 -115.942105 0 1815ft 0kts
25-Aug-18 09:52 34.135983 -115.942105 0 1815ft 0kts
25-Aug-18 09:53 34.135983 -115.942105 0 1815ft 0kts
25-Aug-18 09:54 34.135983 -115.942105 0 1815ft 0kts
25-Aug-18 09:55 34.135983 -115.942105 0 1815ft 0kts
25-Aug-18 09:56 34.135983 -115.942105 0 1815ft 0kts
25-Aug-18 09:57 34.135983 -115.942105 0 1815ft 0kts
25-Aug-18 09:58 34.135983 -115.942105 0 1815ft 0kts
25-Aug-18 09:59 34.135983 -115.942105 0 1815ft 0kts
25-Aug-18 10:00 34.135983 -115.942105 0 1815ft 0kts
25-Aug-18 10:01 34.136028 -115.941783 122 1814ft 7kts
25-Aug-18 10:02 34.135253 -115.938574 89 1802ft 16kts
25-Aug-18 10:03 34.135319 -115.935211 228 1788ft 0kts
25-Aug-18 10:04 34.135319 -115.935211 228 1788ft 0kts
25-Aug-18 10:05 34.135319 -115.935211 228 1788ft 0kts
25-Aug-18 10:06 34.135154 -115.935239 172 1789ft 8kts
25-Aug-18 10:07 34.134430 -115.949331 277 1969ft 81kts
25-Aug-18 10:08 34.127526 -115.970112 159 2586ft 84kts
25-Aug-18 10:09 34.123037 -115.944769 89 3136ft 80kts
25-Aug-18 10:10 34.121761 -115.918224 84 3693ft 79kts
25-Aug-18 10:11 34.121722 -115.891051 91 4194ft 81kts
25-Aug-18 10:12 34.118225 -115.863760 94 4669ft 83kts
25-Aug-18 10:13 34.115845 -115.836255 91 5152ft 82kts
25-Aug-18 10:14 34.115117 -115.808587 89 5617ft 81kts
25-Aug-18 10:15 34.111931 -115.781551 106 6023ft 84kts
25-Aug-18 10:16 34.092738 -115.783593 222 6456ft 89kts
25-Aug-18 10:17 34.073604 -115.802681 217 6823ft 94kts
25-Aug-18 10:18 34.052694 -115.820972 212 7219ft 93kts
25-Aug-18 10:19 34.031340 -115.838225 214 7605ft 93kts
25-Aug-18 10:20 34.009919 -115.855002 210 7893ft 104kts
25-Aug-18 10:21 33.983775 -115.875071 214 8006ft 113kts
25-Aug-18 10:22 33.957120 -115.895739 212 8120ft 114kts
25-Aug-18 10:23 33.929303 -115.916233 212 8182ft 119kts
25-Aug-18 10:24 33.903259 -115.941142 219 8228ft 121kts
25-Aug-18 10:25 33.877551 -115.966105 214 8272ft 120kts
25-Aug-18 10:26 33.849846 -115.989148 213 8279ft 122kts
25-Aug-18 10:27 33.821821 -116.011657 213 8305ft 122kts
25-Aug-18 10:28 33.794535 -116.036174 219 8212ft 129kts
25-Aug-18 10:29 33.765371 -116.063008 214 8014ft 127kts
25-Aug-18 10:30 33.735692 -116.086334 211 7887ft 125kts
25-Aug-18 10:31 33.706438 -116.104959 208 7996ft 120kts
25-Aug-18 10:32 33.677692 -116.125181 214 8053ft 120kts
25-Aug-18 10:33 33.647915 -116.142758 206 8110ft 120kts
25-Aug-18 10:34 33.617562 -116.130440 143 7651ft 132kts
25-Aug-18 10:35 33.593677 -116.098343 120 7128ft 134kts
25-Aug-18 10:36 33.573000 -116.060611 119 6389ft 136kts
25-Aug-18 10:37 33.550715 -116.022092 119 5553ft 139kts
25-Aug-18 10:38 33.530492 -115.983138 117 4862ft 136kts
25-Aug-18 10:39 33.511002 -115.944934 129 4283ft 133kts
25-Aug-18 10:40 33.483809 -115.963423 241 3688ft 140kts
25-Aug-18 10:41 33.459010 -115.995748 225 3555ft 127kts
25-Aug-18 10:42 33.447326 -116.028982 320 3633ft 119kts
25-Aug-18 10:43 33.474680 -116.053779 331 3088ft 123kts
25-Aug-18 10:44 33.504045 -116.071891 337 2543ft 120kts
25-Aug-18 10:45 33.534228 -116.090548 332 1868ft 121kts
25-Aug-18 10:46 33.561663 -116.110271 334 1563ft 118kts
25-Aug-18 10:47 33.590149 -116.128686 335 768ft 110kts
25-Aug-18 10:48 33.610850 -116.147944 323 230ft 79kts
25-Aug-18 10:49 33.622533 -116.161821 316 -119ft 39kts
25-Aug-18 10:50 33.625768 -116.164738 355 -115ft 0kts
25-Aug-18 10:51 33.627142 -116.166248 315 -113ft 16kts
25-Aug-18 10:52 33.629925 -116.169574 318 -110ft 15kts
25-Aug-18 10:53 33.633888 -116.170917 3 -106ft 14kts
25-Aug-18 10:54 33.634142 -116.166470 90 -108ft 13kts
25-Aug-18 10:55 33.634610 -116.165004 88 -109ft 0kts
25-Aug-18 10:56 33.634610 -116.165005 88 -109ft 0kts

Navigation Log

Ident Type
Flight plan parsing failed, navigation log unavailable